Time;durP1;ratioP1;P1;durP2;ratioP2;P2;SDS_P1;SDS_P2;PMS_P1;PMS_P2;Temp;Humidity;BMP_temperature;BMP_pressure;BME280_temperature;BME280_humidity;BME280_pressure;Samples;Min_cycle;Max_cycle;Signal;HPM_P1;HPM_P2
2022/11/21 00:01:17;;;;;;;;;;;-4.20;99.90;;;;;;2773097;31;20468;31
2022/11/21 00:03:51;;;;;;;;;;;-4.20;99.90;;;;;;2603445;54;19934;31
2022/11/21 00:06:25;;;;;;;;;;;-4.20;99.90;;;;;;2603380;54;19994;31
2022/11/21 00:09:00;;;;;;;;;;;-4.20;99.90;;;;;;2603276;54;20001;31
2022/11/21 00:11:33;;;;;;;;;;;-4.20;99.90;;;;;;2603213;54;19942;31
2022/11/21 00:14:07;;;;;;;;;;;-4.20;99.90;;;;;;2603393;54;19938;31
2022/11/21 00:16:44;;;;;;;;;;;-4.30;99.90;;;;;;2603338;54;20767;31
2022/11/21 00:21:50;;;;;;;;;;;-4.30;99.90;;;;;;2621908;46;19942;31
2022/11/21 00:24:25;;;;;;;;;;;-4.30;99.90;;;;;;2603197;54;20693;31
2022/11/21 00:27:00;;;;;;;;;;;-4.40;99.90;;;;;;2603259;54;19934;31
2022/11/21 00:29:33;;;;;;;;;;;-4.40;99.90;;;;;;2603122;54;20795;31
2022/11/21 00:32:08;;;;;;;;;;;-4.40;99.90;;;;;;2603461;54;19935;31
2022/11/21 00:34:43;;;;;;;;;;;-4.50;99.90;;;;;;2603118;54;19934;31
2022/11/21 00:37:17;;;;;;;;;;;-4.50;99.90;;;;;;2603290;54;19941;31
2022/11/21 00:39:50;;;;;;;;;;;-4.50;99.90;;;;;;2603304;54;19935;31
2022/11/21 00:42:25;;;;;;;;;;;-4.50;99.90;;;;;;2603441;54;20767;31
2022/11/21 00:45:03;;;;;;;;;;;-4.50;99.90;;;;;;2621271;47;22283;31
2022/11/21 00:47:40;;;;;;;;;;;-4.50;99.90;;;;;;2621688;47;20763;31
2022/11/21 00:50:13;;;;;;;;;;;-4.50;99.90;;;;;;2603213;54;20784;31
2022/11/21 00:52:47;;;;;;;;;;;-4.50;99.90;;;;;;2701958;39;20377;31
2022/11/21 00:55:21;;;;;;;;;;;-4.50;99.90;;;;;;2603116;54;19934;31
2022/11/21 00:57:56;;;;;;;;;;;-4.50;99.90;;;;;;2602730;54;19942;31
2022/11/21 01:00:30;;;;;;;;;;;-4.50;99.90;;;;;;2602880;54;20005;31
2022/11/21 01:03:07;;;;;;;;;;;-4.40;99.90;;;;;;2603238;54;20712;31
2022/11/21 01:05:40;;;;;;;;;;;-4.50;99.90;;;;;;2603086;54;19941;31
2022/11/21 01:08:14;;;;;;;;;;;-4.40;99.90;;;;;;2603251;54;20784;31
2022/11/21 01:10:45;;;;;;;;;;;-4.40;99.90;;;;;;2621442;47;21062;31
2022/11/21 01:13:19;;;;;;;;;;;-4.30;99.90;;;;;;2621473;47;19961;31
2022/11/21 01:15:53;;;;;;;;;;;-4.30;99.90;;;;;;2603771;54;20787;31
2022/11/21 01:18:30;;;;;;;;;;;-4.30;99.90;;;;;;2603718;54;20068;31
2022/11/21 01:21:02;;;;;;;;;;;-4.20;99.90;;;;;;2603659;54;19941;31
2022/11/21 01:23:36;;;;;;;;;;;-4.20;99.90;;;;;;2622245;46;19942;31
2022/11/21 01:26:12;;;;;;;;;;;-4.20;99.90;;;;;;2622694;46;19993;31
2022/11/21 01:28:46;;;;;;;;;;;-4.10;99.90;;;;;;2622095;46;20782;31
2022/11/21 01:31:21;;;;;;;;;;;-4.00;99.90;;;;;;2603561;54;19977;31
2022/11/21 01:33:58;;;;;;;;;;;-4.00;99.90;;;;;;2622220;46;20001;31
2022/11/21 01:36:32;;;;;;;;;;;-4.00;99.90;;;;;;2622269;46;20801;31
2022/11/21 01:39:05;;;;;;;;;;;-3.90;99.90;;;;;;2622568;46;19938;31
2022/11/21 01:41:39;;;;;;;;;;;-3.90;99.90;;;;;;2702577;39;21273;31
2022/11/21 01:44:15;;;;;;;;;;;-3.80;99.90;;;;;;2622356;46;19941;31
2022/11/21 01:46:50;;;;;;;;;;;-3.80;99.90;;;;;;2622541;46;20759;31
2022/11/21 01:49:27;;;;;;;;;;;-3.80;99.90;;;;;;2603796;54;19935;31
2022/11/21 01:52:01;;;;;;;;;;;-3.70;99.90;;;;;;2622602;46;20802;31
2022/11/21 01:54:35;;;;;;;;;;;-3.70;99.90;;;;;;2603617;54;20468;31
2022/11/21 01:57:10;;;;;;;;;;;-3.60;99.90;;;;;;2621789;46;20758;31
2022/11/21 01:59:45;;;;;;;;;;;-3.60;99.90;;;;;;2622496;46;20792;31
2022/11/21 02:02:19;;;;;;;;;;;-3.50;99.90;;;;;;2622455;46;20757;31
2022/11/21 02:04:56;;;;;;;;;;;-3.50;99.90;;;;;;2622113;46;19946;31
2022/11/21 02:07:30;;;;;;;;;;;-3.40;99.90;;;;;;2603802;54;19998;31
2022/11/21 02:10:04;;;;;;;;;;;-3.40;99.90;;;;;;2603866;54;19935;31
2022/11/21 02:12:39;;;;;;;;;;;-3.30;99.90;;;;;;2702324;39;21274;31
2022/11/21 02:15:14;;;;;;;;;;;-3.30;99.90;;;;;;2603773;54;19943;31
2022/11/21 02:17:48;;;;;;;;;;;-3.20;99.90;;;;;;2603678;54;19934;31
2022/11/21 02:20:25;;;;;;;;;;;-3.20;99.90;;;;;;2603417;54;20804;31
2022/11/21 02:23:00;;;;;;;;;;;-3.10;99.90;;;;;;2622123;46;19941;31
2022/11/21 02:25:35;;;;;;;;;;;-3.10;99.90;;;;;;2603659;54;19961;31
2022/11/21 02:28:10;;;;;;;;;;;-3.10;99.90;;;;;;2603748;54;19935;31
2022/11/21 02:30:43;;;;;;;;;;;-3.10;99.90;;;;;;2621966;46;20484;31
2022/11/21 02:33:16;;;;;;;;;;;-3.00;99.90;;;;;;2603626;54;20454;31
2022/11/21 02:35:57;;;;;;;;;;;-3.00;99.90;;;;;;2622406;46;19935;31
2022/11/21 02:38:31;;;;;;;;;;;-2.90;99.90;;;;;;2622149;46;20001;31
2022/11/21 02:41:09;;;;;;;;;;;-2.90;99.90;;;;;;2622293;46;20714;31
2022/11/21 02:43:44;;;;;;;;;;;-2.90;99.90;;;;;;2603606;54;20767;31
2022/11/21 02:46:17;;;;;;;;;;;-2.80;99.90;;;;;;2603808;54;20760;31
2022/11/21 02:48:51;;;;;;;;;;;-2.80;99.90;;;;;;2603915;54;19935;31
2022/11/21 02:51:23;;;;;;;;;;;-2.80;99.90;;;;;;2603857;54;19941;31
2022/11/21 02:53:57;;;;;;;;;;;-2.70;99.90;;;;;;2603788;54;20765;31
2022/11/21 02:56:34;;;;;;;;;;;-2.70;99.90;;;;;;2603499;54;21479;31
2022/11/21 02:59:09;;;;;;;;;;;-2.70;99.90;;;;;;2603449;54;20790;31
2022/11/21 03:01:43;;;;;;;;;;;-2.60;99.90;;;;;;2603559;54;19941;31
2022/11/21 03:04:17;;;;;;;;;;;-2.60;99.90;;;;;;2622172;46;19990;31
2022/11/21 03:06:51;;;;;;;;;;;-2.00;99.90;;;;;;2603582;54;20001;31
2022/11/21 03:09:25;;;;;;;;;;;-2.60;99.90;;;;;;2603440;54;19946;31
2022/11/21 03:12:01;;;;;;;;;;;-2.50;99.90;;;;;;2603460;54;19941;31
2022/11/21 03:14:34;;;;;;;;;;;-2.50;99.90;;;;;;2603686;54;20771;31
2022/11/21 03:17:07;;;;;;;;;;;-2.50;99.90;;;;;;2622000;46;19935;31
2022/11/21 03:19:42;;;;;;;;;;;-2.40;99.90;;;;;;2603481;54;20041;31
2022/11/21 03:22:15;;;;;;;;;;;-2.40;99.90;;;;;;2621952;46;19934;31
2022/11/21 03:24:48;;;;;;;;;;;-2.40;99.90;;;;;;2603471;54;20771;31
2022/11/21 03:27:26;;;;;;;;;;;-2.30;99.90;;;;;;2603341;54;19938;31
2022/11/21 03:30:00;;;;;;;;;;;-2.30;99.90;;;;;;2622042;46;19990;31
2022/11/21 03:32:34;;;;;;;;;;;-2.30;99.90;;;;;;2603651;54;20764;31
2022/11/21 03:35:08;;;;;;;;;;;-2.30;99.90;;;;;;2603218;54;20739;31
2022/11/21 03:37:42;;;;;;;;;;;-2.20;99.90;;;;;;2603164;54;20801;31
2022/11/21 03:40:15;;;;;;;;;;;-2.20;99.90;;;;;;2621562;46;19998;31
2022/11/21 03:42:53;;;;;;;;;;;-2.10;99.90;;;;;;2720485;39;20501;31
2022/11/21 03:45:27;;;;;;;;;;;-2.10;99.90;;;;;;2603527;54;20756;31
2022/11/21 03:48:01;;;;;;;;;;;-2.10;99.90;;;;;;2603380;54;19938;31
2022/11/21 03:50:35;;;;;;;;;;;-2.10;99.90;;;;;;2603064;54;19989;31
2022/11/21 03:53:08;;;;;;;;;;;-2.00;99.90;;;;;;2603487;54;20739;31
2022/11/21 03:55:44;;;;;;;;;;;-2.00;99.90;;;;;;2603627;54;20438;31
2022/11/21 03:58:21;;;;;;;;;;;-2.00;99.90;;;;;;2603310;54;20744;31
2022/11/21 04:00:54;;;;;;;;;;;-1.90;99.90;;;;;;2720667;39;20358;31
2022/11/21 04:03:28;;;;;;;;;;;-1.90;99.90;;;;;;2621699;46;19942;31
2022/11/21 04:06:03;;;;;;;;;;;-1.90;99.90;;;;;;2621965;46;19942;31
2022/11/21 04:08:37;;;;;;;;;;;-1.90;99.90;;;;;;2621737;46;19989;31
2022/11/21 04:11:11;;;;;;;;;;;-1.90;99.90;;;;;;2603401;54;20790;31
2022/11/21 04:13:47;;;;;;;;;;;-1.80;99.90;;;;;;2603226;54;20742;31
2022/11/21 04:16:20;;;;;;;;;;;-1.80;99.90;;;;;;2702061;39;20500;31
2022/11/21 04:18:54;;;;;;;;;;;-1.80;99.90;;;;;;2603093;54;19942;31
2022/11/21 04:21:27;;;;;;;;;;;-1.80;99.90;;;;;;2622024;46;19981;31
2022/11/21 04:24:02;;;;;;;;;;;-1.80;99.90;;;;;;2603421;54;20776;31
2022/11/21 04:26:35;;;;;;;;;;;-1.80;99.90;;;;;;2621701;47;19985;31
2022/11/21 04:29:13;;;;;;;;;;;-1.80;99.90;;;;;;2621711;47;19947;31
2022/11/21 04:31:47;;;;;;;;;;;-1.80;99.90;;;;;;2603144;54;20779;31
2022/11/21 04:34:21;;;;;;;;;;;-1.80;99.90;;;;;;2603147;54;21313;31
2022/11/21 04:36:55;;;;;;;;;;;-1.80;99.90;;;;;;2603227;54;19950;31
2022/11/21 04:39:28;;;;;;;;;;;-1.80;99.90;;;;;;2603133;54;19969;31
2022/11/21 04:42:02;;;;;;;;;;;-1.80;99.90;;;;;;2603016;54;19940;31
2022/11/21 04:44:39;;;;;;;;;;;-1.70;99.90;;;;;;2621916;47;19935;31
2022/11/21 04:47:13;;;;;;;;;;;-1.70;99.90;;;;;;2603379;54;20740;31
2022/11/21 04:49:47;;;;;;;;;;;-1.70;99.90;;;;;;2603850;54;19939;31
2022/11/21 04:52:21;;;;;;;;;;;-1.70;99.90;;;;;;2622592;46;19938;31
2022/11/21 04:54:55;;;;;;;;;;;-1.60;99.90;;;;;;2622506;46;19946;31
2022/11/21 04:57:29;;;;;;;;;;;-1.60;99.90;;;;;;2622300;46;19935;31
2022/11/21 05:00:06;;;;;;;;;;;-1.60;99.90;;;;;;2603934;54;19942;31
2022/11/21 05:02:40;;;;;;;;;;;-1.60;99.90;;;;;;2604045;54;19940;31
2022/11/21 05:05:13;;;;;;;;;;;-1.40;99.90;;;;;;2604030;54;21287;31
2022/11/21 05:07:47;;;;;;;;;;;-1.50;99.90;;;;;;2622380;46;19946;31
2022/11/21 05:10:22;;;;;;;;;;;-1.50;99.90;;;;;;2603881;54;20481;31
2022/11/21 05:15:50;;;;;;;;;;;-1.50;99.90;;;;;;2603945;54;20760;31
2022/11/21 05:18:24;;;;;;;;;;;-1.50;99.90;;;;;;2622042;46;20760;31
2022/11/21 05:20:59;;;;;;;;;;;-1.40;99.90;;;;;;2603930;54;19989;31
2022/11/21 05:23:33;;;;;;;;;;;-1.40;99.90;;;;;;2622188;46;19934;31
2022/11/21 05:26:06;;;;;;;;;;;-1.40;99.90;;;;;;2622352;46;19934;31
2022/11/21 05:28:41;;;;;;;;;;;-1.40;99.90;;;;;;2603782;54;19934;31
2022/11/21 05:31:17;;;;;;;;;;;-1.30;99.90;;;;;;2604019;54;19938;31
2022/11/21 05:33:51;;;;;;;;;;;-1.30;99.90;;;;;;2622471;46;19957;31
2022/11/21 05:36:26;;;;;;;;;;;-1.30;99.90;;;;;;2603899;54;20012;31
2022/11/21 05:39:00;;;;;;;;;;;-1.30;99.90;;;;;;2604005;54;19934;31
2022/11/21 05:41:33;;;;;;;;;;;-1.30;99.90;;;;;;2621911;46;20469;31
2022/11/21 05:44:05;;;;;;;;;;;-1.30;99.90;;;;;;2702639;39;21491;31
2022/11/21 05:46:42;;;;;;;;;;;-1.30;99.90;;;;;;2622145;46;19942;31
2022/11/21 05:49:16;;;;;;;;;;;-1.20;99.90;;;;;;2603924;54;19942;31
2022/11/21 05:51:49;;;;;;;;;;;-1.20;99.90;;;;;;2604134;54;19941;31
2022/11/21 05:54:23;;;;;;;;;;;-1.20;99.90;;;;;;2603910;54;20008;31
2022/11/21 05:56:58;;;;;;;;;;;-1.20;99.90;;;;;;2603821;54;19946;31
2022/11/21 05:59:31;;;;;;;;;;;-1.20;99.90;;;;;;2621858;46;19941;31
2022/11/21 06:04:55;;;;;;;;;;;-1.20;99.90;;;;;;2603862;54;19950;31
2022/11/21 06:07:28;;;;;;;;;;;-1.20;99.90;;;;;;2603564;54;20799;31
2022/11/21 06:10:03;;;;;;;;;;;-1.20;99.90;;;;;;2622484;46;20009;31
2022/11/21 06:12:37;;;;;;;;;;;-1.10;99.90;;;;;;2603727;54;20760;31
2022/11/21 06:15:11;;;;;;;;;;;-1.10;99.90;;;;;;2622442;46;20755;31
2022/11/21 06:17:47;;;;;;;;;;;-1.10;99.90;;;;;;2603716;54;20719;31
2022/11/21 06:20:21;;;;;;;;;;;-1.10;99.90;;;;;;2621978;46;20454;31
2022/11/21 06:22:56;;;;;;;;;;;-1.10;99.90;;;;;;2622031;46;20757;31
2022/11/21 06:25:29;;;;;;;;;;;-1.10;99.90;;;;;;2622228;46;19998;31
2022/11/21 06:28:04;;;;;;;;;;;-1.00;99.90;;;;;;2603699;54;19935;31
2022/11/21 06:30:39;;;;;;;;;;;-0.90;99.90;;;;;;2603677;54;19934;31
2022/11/21 06:33:18;;;;;;;;;;;-0.90;99.90;;;;;;2603760;54;19934;31
2022/11/21 06:35:52;;;;;;;;;;;-0.90;99.90;;;;;;2603575;54;19941;31
2022/11/21 06:38:27;;;;;;;;;;;-0.90;99.90;;;;;;2603516;54;20004;31
2022/11/21 06:41:01;;;;;;;;;;;-1.00;99.90;;;;;;2603786;54;20757;31
2022/11/21 06:43:36;;;;;;;;;;;-0.90;99.90;;;;;;2603558;54;19941;31
2022/11/21 06:46:11;;;;;;;;;;;0.10;99.90;;;;;;2603607;54;20572;31
2022/11/21 06:48:48;;;;;;;;;;;-1.00;99.90;;;;;;2603851;54;20776;31
2022/11/21 06:51:28;;;;;;;;;;;-1.00;99.90;;;;;;2621843;46;20029;31
2022/11/21 06:54:02;;;;;;;;;;;-1.00;99.90;;;;;;2610185;46;19934;31
2022/11/21 06:56:38;;;;;;;;;;;-1.00;99.90;;;;;;2622166;46;20770;31
2022/11/21 06:59:13;;;;;;;;;;;-1.00;99.90;;;;;;2603397;54;20791;31
2022/11/21 07:01:49;;;;;;;;;;;-1.00;99.90;;;;;;2603475;54;20803;31
2022/11/21 07:04:24;;;;;;;;;;;-1.00;99.90;;;;;;2622097;46;19935;31
2022/11/21 07:07:03;;;;;;;;;;;-0.90;99.90;;;;;;2622212;46;20025;31
2022/11/21 07:09:43;;;;;;;;;;;-0.90;99.90;;;;;;2622043;46;19935;31
2022/11/21 07:15:19;;;;;;;;;;;-0.90;99.90;;;;;;2603521;54;19935;31
2022/11/21 07:17:53;;;;;;;;;;;-0.90;99.90;;;;;;2622086;46;19939;31
2022/11/21 07:20:27;;;;;;;;;;;-0.90;99.90;;;;;;2603735;54;19957;31
2022/11/21 07:23:05;;;;;;;;;;;-0.80;99.90;;;;;;2603304;54;20748;31
2022/11/21 07:25:41;;;;;;;;;;;-0.80;99.90;;;;;;2603657;54;19957;31
2022/11/21 07:28:14;;;;;;;;;;;-0.80;99.90;;;;;;2622215;46;19997;31
2022/11/21 07:30:50;;;;;;;;;;;-0.80;99.90;;;;;;2603634;54;20787;31
2022/11/21 07:33:24;;;;;;;;;;;-0.70;99.90;;;;;;2621833;46;19997;31
2022/11/21 07:35:58;;;;;;;;;;;-0.70;99.90;;;;;;2603480;54;19934;31
2022/11/21 07:38:35;;;;;;;;;;;-0.60;99.90;;;;;;2622130;46;20728;31
2022/11/21 07:41:11;;;;;;;;;;;-0.60;99.90;;;;;;2621950;46;20761;31
2022/11/21 07:43:49;;;;;;;;;;;-0.60;99.90;;;;;;2621956;46;20860;31
2022/11/21 07:46:24;;;;;;;;;;;-0.50;99.90;;;;;;2603301;54;20784;31
2022/11/21 07:48:58;;;;;;;;;;;-0.50;99.90;;;;;;2622032;46;19934;31
2022/11/21 07:51:38;;;;;;;;;;;-0.40;99.90;;;;;;2621985;46;19997;31
2022/11/21 07:54:15;;;;;;;;;;;-0.40;99.90;;;;;;2621958;46;19990;31
2022/11/21 07:56:49;;;;;;;;;;;-0.30;99.90;;;;;;2603484;54;20768;31
2022/11/21 07:59:25;;;;;;;;;;;-0.30;99.90;;;;;;2603325;54;20733;31
2022/11/21 08:02:00;;;;;;;;;;;-0.30;99.90;;;;;;2702007;39;21565;31
2022/11/21 08:04:36;;;;;;;;;;;-0.20;99.90;;;;;;2603285;54;19931;31
2022/11/21 08:07:12;;;;;;;;;;;-0.20;99.90;;;;;;2702106;39;20276;31
2022/11/21 08:09:51;;;;;;;;;;;-0.10;99.90;;;;;;2603426;54;20728;31
2022/11/21 08:12:27;;;;;;;;;;;-0.10;99.90;;;;;;2603260;54;19942;31
2022/11/21 08:15:05;;;;;;;;;;;0.00;99.90;;;;;;2603271;54;19985;31
2022/11/21 08:17:43;;;;;;;;;;;0.00;99.90;;;;;;2602516;54;21527;31
2022/11/21 08:20:18;;;;;;;;;;;0.10;99.90;;;;;;2621803;46;19935;31
2022/11/21 08:22:52;;;;;;;;;;;0.10;99.90;;;;;;2603100;54;19935;31
2022/11/21 08:25:28;;;;;;;;;;;0.10;99.90;;;;;;2702158;39;20954;31
2022/11/21 08:28:02;;;;;;;;;;;0.20;99.90;;;;;;2603416;54;20765;31
2022/11/21 08:30:38;;;;;;;;;;;0.20;99.90;;;;;;2603294;54;19934;31
2022/11/21 08:33:13;;;;;;;;;;;0.30;99.90;;;;;;2603147;54;19985;31
2022/11/21 08:35:47;;;;;;;;;;;0.30;99.90;;;;;;2621746;47;19935;31
2022/11/21 08:38:27;;;;;;;;;;;0.30;99.90;;;;;;2621552;47;20010;31
2022/11/21 08:43:50;;;;;;;;;;;0.40;99.90;;;;;;2603523;54;19946;31
2022/11/21 08:46:29;;;;;;;;;;;0.50;99.90;;;;;;2621862;47;19941;31
2022/11/21 08:49:03;;;;;;;;;;;0.50;99.90;;;;;;2603488;54;20699;31
2022/11/21 08:51:38;;;;;;;;;;;0.50;99.90;;;;;;2621649;47;19938;31
2022/11/21 08:54:14;;;;;;;;;;;0.60;99.90;;;;;;2603463;54;19938;31
2022/11/21 08:56:51;;;;;;;;;;;0.60;99.90;;;;;;2603350;54;19941;31
2022/11/21 08:59:35;;;;;;;;;;;0.70;99.90;;;;;;2603364;54;19961;31
2022/11/21 09:02:11;;;;;;;;;;;0.80;99.90;;;;;;2603149;54;21241;31
2022/11/21 09:04:45;;;;;;;;;;;0.80;99.90;;;;;;2603069;54;20741;31
2022/11/21 09:07:22;;;;;;;;;;;0.80;99.90;;;;;;2603229;54;19941;31
2022/11/21 09:09:56;;;;;;;;;;;0.90;99.90;;;;;;2603001;54;19946;31
2022/11/21 09:12:35;;;;;;;;;;;1.00;99.90;;;;;;2621911;47;19935;31
2022/11/21 09:18:06;;;;;;;;;;;1.10;99.90;;;;;;2603260;54;20739;31
2022/11/21 09:20:41;;;;;;;;;;;1.20;99.90;;;;;;2603298;54;20764;31
2022/11/21 09:23:16;;;;;;;;;;;1.20;99.90;;;;;;2621649;47;20021;31
2022/11/21 09:25:55;;;;;;;;;;;1.30;99.90;;;;;;2602464;54;19946;31
2022/11/21 09:28:35;;;;;;;;;;;1.30;99.90;;;;;;2603214;54;19935;31
2022/11/21 09:31:16;;;;;;;;;;;1.40;99.90;;;;;;2602936;54;19942;31
2022/11/21 09:33:54;;;;;;;;;;;1.40;99.90;;;;;;2602839;54;20762;31
2022/11/21 09:36:30;;;;;;;;;;;1.50;99.90;;;;;;2604119;54;19938;31
2022/11/21 09:39:04;;;;;;;;;;;1.50;99.90;;;;;;2603893;54;20787;31
2022/11/21 09:41:55;;;;;;;;;;;1.50;99.90;;;;;;2622246;46;20748;31
2022/11/21 09:44:33;;;;;;;;;;;1.60;99.90;;;;;;2603895;54;19941;31
2022/11/21 09:47:13;;;;;;;;;;;1.60;99.90;;;;;;2603943;54;19934;31
2022/11/21 09:49:50;;;;;;;;;;;1.70;99.90;;;;;;2622626;46;20764;31
2022/11/21 09:52:25;;;;;;;;;;;1.70;99.90;;;;;;2614089;46;19941;31
2022/11/21 09:55:01;;;;;;;;;;;1.80;99.90;;;;;;2604107;54;19934;31
2022/11/21 09:57:36;;;;;;;;;;;1.80;99.90;;;;;;2603800;54;20772;31
2022/11/21 10:00:13;;;;;;;;;;;1.90;99.90;;;;;;2621961;46;20763;31
2022/11/21 10:02:50;;;;;;;;;;;1.90;99.90;;;;;;2603723;54;19997;31
2022/11/21 10:05:25;;;;;;;;;;;2.00;99.90;;;;;;2603648;54;20018;31
2022/11/21 10:08:00;;;;;;;;;;;2.10;99.90;;;;;;2622175;46;20730;31
2022/11/21 10:10:37;;;;;;;;;;;2.10;99.90;;;;;;2622225;46;19989;31
2022/11/21 10:13:15;;;;;;;;;;;2.20;99.90;;;;;;2622458;46;20780;31
2022/11/21 10:15:55;;;;;;;;;;;2.30;99.90;;;;;;2603926;54;19934;31
2022/11/21 10:18:51;;;;;;;;;;;2.40;99.90;;;;;;2604003;54;19946;31
2022/11/21 10:21:29;;;;;;;;;;;2.40;99.90;;;;;;2603609;54;19934;31
2022/11/21 10:24:06;;;;;;;;;;;2.50;99.90;;;;;;2614251;46;19938;31
2022/11/21 10:26:42;;;;;;;;;;;2.60;99.90;;;;;;2603538;54;20783;31
2022/11/21 10:29:23;;;;;;;;;;;2.70;99.90;;;;;;2602885;54;19942;31
2022/11/21 10:31:58;;;;;;;;;;;2.70;99.90;;;;;;2603672;54;19934;31
2022/11/21 10:34:36;;;;;;;;;;;2.80;99.90;;;;;;2622139;46;19989;31
2022/11/21 10:37:12;;;;;;;;;;;2.90;99.90;;;;;;2603550;54;19942;31
2022/11/21 10:39:48;;;;;;;;;;;2.90;99.90;;;;;;2603000;54;20850;31
2022/11/21 10:42:27;;;;;;;;;;;3.00;99.90;;;;;;2622210;46;19935;31
2022/11/21 10:47:49;;;;;;;;;;;3.10;99.90;;;;;;2603420;54;21298;31
2022/11/21 10:50:33;;;;;;;;;;;3.10;99.90;;;;;;2618971;46;19997;31
2022/11/21 10:56:02;;;;;;;;;;;3.20;99.90;;;;;;2603715;54;20017;31
2022/11/21 10:58:39;;;;;;;;;;;3.30;99.90;;;;;;2603687;54;20724;31
2022/11/21 11:01:46;;;;;;;;;;;3.30;99.90;;;;;;2622079;46;19942;31
2022/11/21 11:04:22;;;;;;;;;;;3.30;99.90;;;;;;2603391;54;20758;31
2022/11/21 11:07:15;;;;;;;;;;;3.40;99.90;;;;;;2603708;54;20792;31
2022/11/21 11:09:51;;;;;;;;;;;3.40;99.90;;;;;;2622340;46;19934;31
2022/11/21 11:13:32;;;;;;;;;;;3.50;99.90;;;;;;2621971;46;19980;31
2022/11/21 11:15:29;;;;;;;;;;;3.50;99.90;;;;;;2603455;54;19941;31
2022/11/21 11:18:07;;;;;;;;;;;3.60;99.90;;;;;;2603701;54;20001;31
2022/11/21 11:20:43;;;;;;;;;;;3.60;99.90;;;;;;2603463;54;19935;31
2022/11/21 11:23:25;;;;;;;;;;;3.70;99.90;;;;;;2622047;46;20009;31
2022/11/21 11:26:02;;;;;;;;;;;3.70;99.90;;;;;;2603751;46;20017;31
2022/11/21 11:28:35;;;;;;;;;;;3.80;99.90;;;;;;2603589;54;19939;31
2022/11/21 11:31:11;;;;;;;;;;;3.80;99.90;;;;;;2603474;54;19934;31
2022/11/21 11:33:53;;;;;;;;;;;3.80;99.90;;;;;;2603271;54;20775;31
2022/11/21 11:36:36;;;;;;;;;;;3.90;99.90;;;;;;2622131;46;20013;31
2022/11/21 11:39:20;;;;;;;;;;;3.90;99.90;;;;;;2603702;54;20753;31
2022/11/21 11:47:44;;;;;;;;;;;3.90;99.90;;;;;;2603762;54;19935;31
2022/11/21 11:50:29;;;;;;;;;;;4.00;99.90;;;;;;2603353;54;20017;31
2022/11/21 11:53:06;;;;;;;;;;;4.00;99.90;;;;;;2603551;54;19931;31
2022/11/21 11:55:46;;;;;;;;;;;4.00;99.90;;;;;;2603428;54;20799;31
2022/11/21 11:58:22;;;;;;;;;;;4.00;99.90;;;;;;2603202;54;20841;31
2022/11/21 12:00:58;;;;;;;;;;;4.00;99.90;;;;;;2603662;54;20771;31
2022/11/21 12:03:36;;;;;;;;;;;4.00;99.90;;;;;;2602986;54;20764;31
2022/11/21 12:06:13;;;;;;;;;;;4.00;99.90;;;;;;2603303;54;20835;31
2022/11/21 12:08:52;;;;;;;;;;;4.00;99.90;;;;;;2603354;54;20053;31
2022/11/21 12:15:47;;;;;;;;;;;3.90;99.90;;;;;;2603294;54;19940;31
2022/11/21 12:17:15;;;;;;;;;;;3.90;99.90;;;;;;2621838;46;20010;31
2022/11/21 12:19:55;;;;;;;;;;;3.90;99.90;;;;;;2622060;46;19961;31
2022/11/21 12:22:31;;;;;;;;;;;3.90;99.90;;;;;;2603189;54;20004;31
2022/11/21 12:25:07;;;;;;;;;;;3.80;99.90;;;;;;2603548;54;20750;31
2022/11/21 12:27:45;;;;;;;;;;;3.80;99.90;;;;;;2621734;46;19945;31
2022/11/21 12:30:36;;;;;;;;;;;3.80;99.90;;;;;;2603281;54;20723;31
2022/11/21 12:33:12;;;;;;;;;;;3.70;99.90;;;;;;2621880;47;20752;31
2022/11/21 12:35:52;;;;;;;;;;;3.70;99.90;;;;;;2621743;47;19941;31
2022/11/21 12:38:37;;;;;;;;;;;3.60;99.90;;;;;;2603217;54;20818;31
2022/11/21 12:44:13;;;;;;;;;;;3.40;99.90;;;;;;2602895;54;20766;31
2022/11/21 12:46:50;;;;;;;;;;;3.40;99.90;;;;;;2603197;54;19942;31
2022/11/21 12:55:11;;;;;;;;;;;3.30;99.90;;;;;;2621589;47;19946;31
2022/11/21 12:57:53;;;;;;;;;;;3.20;99.90;;;;;;2603470;54;19957;31
2022/11/21 13:00:34;;;;;;;;;;;3.20;99.90;;;;;;2603313;54;20750;31
2022/11/21 13:03:21;;;;;;;;;;;3.20;99.90;;;;;;2603345;54;19946;31
2022/11/21 13:05:56;;;;;;;;;;;3.20;99.90;;;;;;2621506;47;19941;31
2022/11/21 13:08:31;;;;;;;;;;;3.10;99.90;;;;;;2621609;47;19946;31
2022/11/21 13:13:58;;;;;;;;;;;3.20;99.90;;;;;;2603901;54;20766;31
2022/11/21 13:16:43;;;;;;;;;;;3.20;99.90;;;;;;2603873;54;20000;31
2022/11/21 13:19:19;;;;;;;;;;;3.20;99.90;;;;;;2604297;54;19993;31
2022/11/21 13:21:55;;;;;;;;;;;3.20;99.90;;;;;;2604048;54;19941;31
2022/11/21 13:24:46;;;;;;;;;;;3.10;99.90;;;;;;2622202;46;19943;31
2022/11/21 13:27:42;;;;;;;;;;;3.10;99.90;;;;;;2622279;46;19934;31
2022/11/21 13:30:22;;;;;;;;;;;3.10;99.90;;;;;;2603630;54;19934;31
2022/11/21 13:32:59;;;;;;;;;;;3.10;99.90;;;;;;2607818;46;19934;31
2022/11/21 13:35:49;;;;;;;;;;;3.10;99.90;;;;;;2603983;54;20784;31
2022/11/21 13:38:27;;;;;;;;;;;3.10;99.90;;;;;;2622171;46;20796;31
2022/11/21 13:43:51;;;;;;;;;;;3.00;99.90;;;;;;2603721;54;20733;31
2022/11/21 13:46:40;;;;;;;;;;;3.00;99.90;;;;;;2603883;54;20716;31
2022/11/21 13:49:14;;;;;;;;;;;3.00;99.90;;;;;;2603770;54;20797;31
2022/11/21 13:51:51;;;;;;;;;;;2.90;99.90;;;;;;2603099;54;20043;31
2022/11/21 13:54:33;;;;;;;;;;;2.90;99.90;;;;;;2622404;46;20087;31
2022/11/21 13:57:11;;;;;;;;;;;2.90;99.90;;;;;;2603231;54;20774;31
2022/11/21 13:59:56;;;;;;;;;;;2.80;99.90;;;;;;2621866;46;20729;31
2022/11/21 14:02:52;;;;;;;;;;;2.80;99.90;;;;;;2603604;54;20790;31
2022/11/21 14:05:29;;;;;;;;;;;2.70;99.90;;;;;;2603729;54;20703;31
2022/11/21 14:08:19;;;;;;;;;;;2.60;99.90;;;;;;2604030;54;19942;31
2022/11/21 14:10:57;;;;;;;;;;;2.60;99.90;;;;;;2622372;46;19934;31
2022/11/21 14:13:33;;;;;;;;;;;2.50;99.90;;;;;;2603846;54;19942;31
2022/11/21 14:16:10;;;;;;;;;;;2.50;99.90;;;;;;2622103;46;20740;31
2022/11/21 14:18:45;;;;;;;;;;;2.40;99.90;;;;;;2622435;46;20068;31
2022/11/21 14:21:21;;;;;;;;;;;2.40;99.90;;;;;;2603657;54;20748;31
2022/11/21 14:23:56;;;;;;;;;;;2.30;99.90;;;;;;2622594;46;20765;31
2022/11/21 14:26:34;;;;;;;;;;;2.30;99.90;;;;;;2622389;46;20766;31
2022/11/21 14:29:21;;;;;;;;;;;2.20;99.90;;;;;;2602894;54;20909;31
2022/11/21 14:31:55;;;;;;;;;;;2.20;99.90;;;;;;2621992;46;20734;31
2022/11/21 14:34:33;;;;;;;;;;;2.20;99.90;;;;;;2603577;54;19938;31
2022/11/21 14:37:08;;;;;;;;;;;2.10;99.90;;;;;;2622511;46;19934;31
2022/11/21 14:39:42;;;;;;;;;;;2.10;99.90;;;;;;2622249;46;19934;31
2022/11/21 14:42:21;;;;;;;;;;;2.10;99.90;;;;;;2603842;54;19942;31
2022/11/21 14:45:07;;;;;;;;;;;2.00;99.90;;;;;;2622052;46;19962;31
2022/11/21 14:50:22;;;;;;;;;;;1.90;99.90;;;;;;2603307;54;20725;31
2022/11/21 14:52:59;;;;;;;;;;;1.90;99.90;;;;;;2603846;54;20010;31
2022/11/21 14:55:32;;;;;;;;;;;1.90;99.90;;;;;;2702459;39;20922;31
2022/11/21 14:58:09;;;;;;;;;;;1.90;99.90;;;;;;2603481;54;20025;31
2022/11/21 15:00:43;;;;;;;;;;;1.80;99.90;;;;;;2603897;54;19941;31
2022/11/21 15:03:32;;;;;;;;;;;1.80;99.90;;;;;;2603513;54;20705;31
2022/11/21 15:06:06;;;;;;;;;;;1.80;99.90;;;;;;2622211;46;20797;31
2022/11/21 15:08:41;;;;;;;;;;;1.80;99.90;;;;;;2621866;46;20013;31
2022/11/21 15:11:36;;;;;;;;;;;1.70;99.90;;;;;;2603740;54;20730;31
2022/11/21 15:14:17;;;;;;;;;;;1.70;99.90;;;;;;2603884;54;19965;31
2022/11/21 15:16:52;;;;;;;;;;;1.70;99.90;;;;;;2603490;54;19942;31
2022/11/21 15:19:26;;;;;;;;;;;1.70;99.90;;;;;;2622196;46;20794;31
2022/11/21 15:22:02;;;;;;;;;;;1.70;99.90;;;;;;2603587;54;20777;31
2022/11/21 15:24:41;;;;;;;;;;;1.60;99.90;;;;;;2622076;46;19935;31
2022/11/21 15:27:30;;;;;;;;;;;1.60;99.90;;;;;;2622089;46;19934;31
2022/11/21 15:30:18;;;;;;;;;;;1.60;99.90;;;;;;2603704;54;19935;31
2022/11/21 15:33:01;;;;;;;;;;;1.60;99.90;;;;;;2603295;54;19939;31
2022/11/21 15:35:52;;;;;;;;;;;1.50;99.90;;;;;;2603755;54;19989;31
2022/11/21 15:38:27;;;;;;;;;;;1.40;99.90;;;;;;2603214;54;19942;31
2022/11/21 15:41:15;;;;;;;;;;;1.40;99.90;;;;;;2603504;54;20791;31
2022/11/21 15:43:50;;;;;;;;;;;1.30;99.90;;;;;;2603489;54;20755;31
2022/11/21 15:46:27;;;;;;;;;;;1.30;99.90;;;;;;2621916;46;20021;31
2022/11/21 15:49:02;;;;;;;;;;;1.20;99.90;;;;;;2622056;46;19935;31
2022/11/21 15:51:56;;;;;;;;;;;1.20;99.90;;;;;;2603569;54;19938;31
2022/11/21 15:54:44;;;;;;;;;;;1.20;99.90;;;;;;2603324;54;20757;31
2022/11/21 15:57:20;;;;;;;;;;;1.20;99.90;;;;;;2603535;54;19935;31
2022/11/21 15:59:55;;;;;;;;;;;1.20;99.90;;;;;;2622252;46;19956;31
2022/11/21 16:02:32;;;;;;;;;;;1.20;99.90;;;;;;2622077;46;19941;31
2022/11/21 16:05:07;;;;;;;;;;;1.20;99.90;;;;;;2622033;46;19934;31
2022/11/21 16:07:41;;;;;;;;;;;1.20;99.90;;;;;;2621919;46;19957;31
2022/11/21 16:10:15;;;;;;;;;;;1.20;99.90;;;;;;2603454;54;20694;31
2022/11/21 16:13:00;;;;;;;;;;;1.10;99.90;;;;;;2603376;54;19942;31
2022/11/21 16:15:34;;;;;;;;;;;1.10;99.90;;;;;;2621840;46;19941;31
2022/11/21 16:18:10;;;;;;;;;;;1.20;99.90;;;;;;2603548;54;19934;31
2022/11/21 16:20:45;;;;;;;;;;;1.10;99.90;;;;;;2603335;54;20875;31